sensor_id;sensor_type;location;lat;lon;timestamp;temperature;humidity
22645;DHT22;11489;50.834;6.752;2023-07-22T00:00:50;10.80;75.40
22645;DHT22;11489;50.834;6.752;2023-07-22T00:03:16;10.80;75.50
22645;DHT22;11489;50.834;6.752;2023-07-22T00:05:42;10.80;75.80
22645;DHT22;11489;50.834;6.752;2023-07-22T00:08:08;10.70;75.80
22645;DHT22;11489;50.834;6.752;2023-07-22T00:10:33;10.70;76.00
22645;DHT22;11489;50.834;6.752;2023-07-22T00:12:59;10.70;76.10
22645;DHT22;11489;50.834;6.752;2023-07-22T00:15:24;10.70;76.20
22645;DHT22;11489;50.834;6.752;2023-07-22T00:17:51;10.70;76.40
22645;DHT22;11489;50.834;6.752;2023-07-22T00:20:17;10.60;76.50
22645;DHT22;11489;50.834;6.752;2023-07-22T00:22:42;10.60;76.50
22645;DHT22;11489;50.834;6.752;2023-07-22T00:25:11;10.60;76.60
22645;DHT22;11489;50.834;6.752;2023-07-22T00:27:38;10.60;77.00
22645;DHT22;11489;50.834;6.752;2023-07-22T00:30:08;10.50;76.90
22645;DHT22;11489;50.834;6.752;2023-07-22T00:32:34;10.50;77.20
22645;DHT22;11489;50.834;6.752;2023-07-22T00:35:05;10.50;77.10
22645;DHT22;11489;50.834;6.752;2023-07-22T00:37:32;10.50;77.20
22645;DHT22;11489;50.834;6.752;2023-07-22T00:39:57;10.50;77.20
22645;DHT22;11489;50.834;6.752;2023-07-22T00:42:23;10.50;77.40
22645;DHT22;11489;50.834;6.752;2023-07-22T00:44:49;10.40;77.40
22645;DHT22;11489;50.834;6.752;2023-07-22T00:47:16;10.40;77.60
22645;DHT22;11489;50.834;6.752;2023-07-22T00:49:43;10.40;77.70
22645;DHT22;11489;50.834;6.752;2023-07-22T00:52:09;10.30;77.80
22645;DHT22;11489;50.834;6.752;2023-07-22T00:54:35;10.30;78.00
22645;DHT22;11489;50.834;6.752;2023-07-22T00:57:00;10.30;78.30
22645;DHT22;11489;50.834;6.752;2023-07-22T00:59:26;10.30;78.40
22645;DHT22;11489;50.834;6.752;2023-07-22T01:01:52;10.30;78.50
22645;DHT22;11489;50.834;6.752;2023-07-22T01:04:20;10.30;78.50
22645;DHT22;11489;50.834;6.752;2023-07-22T01:06:49;10.30;78.70
22645;DHT22;11489;50.834;6.752;2023-07-22T01:09:15;10.30;78.90
22645;DHT22;11489;50.834;6.752;2023-07-22T01:11:42;10.30;78.90
22645;DHT22;11489;50.834;6.752;2023-07-22T01:14:09;10.20;78.90
22645;DHT22;11489;50.834;6.752;2023-07-22T01:16:35;10.30;79.10
22645;DHT22;11489;50.834;6.752;2023-07-22T01:19:00;10.20;79.10
22645;DHT22;11489;50.834;6.752;2023-07-22T01:21:27;10.20;79.10
22645;DHT22;11489;50.834;6.752;2023-07-22T01:23:53;10.20;79.20
22645;DHT22;11489;50.834;6.752;2023-07-22T01:26:20;10.20;79.40
22645;DHT22;11489;50.834;6.752;2023-07-22T01:28:45;10.20;79.50
22645;DHT22;11489;50.834;6.752;2023-07-22T01:31:11;10.20;79.50
22645;DHT22;11489;50.834;6.752;2023-07-22T01:33:37;10.20;79.60
22645;DHT22;11489;50.834;6.752;2023-07-22T01:36:03;10.20;79.70
22645;DHT22;11489;50.834;6.752;2023-07-22T01:38:29;10.20;79.80
22645;DHT22;11489;50.834;6.752;2023-07-22T01:40:55;10.20;80.40
22645;DHT22;11489;50.834;6.752;2023-07-22T01:43:20;10.10;79.90
22645;DHT22;11489;50.834;6.752;2023-07-22T01:45:47;10.10;80.00
22645;DHT22;11489;50.834;6.752;2023-07-22T01:48:13;10.10;80.10
22645;DHT22;11489;50.834;6.752;2023-07-22T01:50:38;10.10;80.10
22645;DHT22;11489;50.834;6.752;2023-07-22T01:53:04;10.10;80.20
22645;DHT22;11489;50.834;6.752;2023-07-22T01:55:31;10.10;80.40
22645;DHT22;11489;50.834;6.752;2023-07-22T01:58:00;10.10;80.40
22645;DHT22;11489;50.834;6.752;2023-07-22T02:00:26;10.10;80.50
22645;DHT22;11489;50.834;6.752;2023-07-22T02:02:52;10.10;80.60
22645;DHT22;11489;50.834;6.752;2023-07-22T02:05:18;10.10;80.70
22645;DHT22;11489;50.834;6.752;2023-07-22T02:07:43;10.10;80.80
22645;DHT22;11489;50.834;6.752;2023-07-22T02:10:09;10.10;80.90
22645;DHT22;11489;50.834;6.752;2023-07-22T02:12:35;10.10;81.00
22645;DHT22;11489;50.834;6.752;2023-07-22T02:15:01;10.10;81.10
22645;DHT22;11489;50.834;6.752;2023-07-22T02:17:28;10.10;81.20
22645;DHT22;11489;50.834;6.752;2023-07-22T02:19:54;10.10;81.30
22645;DHT22;11489;50.834;6.752;2023-07-22T02:22:20;10.10;81.30
22645;DHT22;11489;50.834;6.752;2023-07-22T02:24:45;10.10;81.40
22645;DHT22;11489;50.834;6.752;2023-07-22T02:27:11;10.10;81.50
22645;DHT22;11489;50.834;6.752;2023-07-22T02:29:37;10.10;81.50
22645;DHT22;11489;50.834;6.752;2023-07-22T02:32:03;10.10;81.50
22645;DHT22;11489;50.834;6.752;2023-07-22T02:34:28;10.10;81.40
22645;DHT22;11489;50.834;6.752;2023-07-22T02:36:54;10.00;81.40
22645;DHT22;11489;50.834;6.752;2023-07-22T02:39:20;10.10;81.40
22645;DHT22;11489;50.834;6.752;2023-07-22T02:41:45;10.10;81.40
22645;DHT22;11489;50.834;6.752;2023-07-22T02:44:11;10.10;81.40
22645;DHT22;11489;50.834;6.752;2023-07-22T02:46:38;10.10;81.50
22645;DHT22;11489;50.834;6.752;2023-07-22T02:49:03;10.00;81.50
22645;DHT22;11489;50.834;6.752;2023-07-22T02:51:30;10.10;81.60
22645;DHT22;11489;50.834;6.752;2023-07-22T02:53:56;10.00;81.60
22645;DHT22;11489;50.834;6.752;2023-07-22T02:56:22;10.00;81.60
22645;DHT22;11489;50.834;6.752;2023-07-22T02:58:49;10.00;81.70
22645;DHT22;11489;50.834;6.752;2023-07-22T03:01:15;10.00;81.80
22645;DHT22;11489;50.834;6.752;2023-07-22T03:03:41;10.00;81.90
22645;DHT22;11489;50.834;6.752;2023-07-22T03:06:06;10.00;82.10
22645;DHT22;11489;50.834;6.752;2023-07-22T03:08:33;10.00;82.20
22645;DHT22;11489;50.834;6.752;2023-07-22T03:10:59;10.00;82.30
22645;DHT22;11489;50.834;6.752;2023-07-22T03:13:24;10.00;82.40
22645;DHT22;11489;50.834;6.752;2023-07-22T03:15:55;10.00;82.50
22645;DHT22;11489;50.834;6.752;2023-07-22T03:18:21;10.10;82.60
22645;DHT22;11489;50.834;6.752;2023-07-22T03:20:46;10.10;82.70
22645;DHT22;11489;50.834;6.752;2023-07-22T03:23:12;10.20;82.80
22645;DHT22;11489;50.834;6.752;2023-07-22T03:25:37;10.20;82.80
22645;DHT22;11489;50.834;6.752;2023-07-22T03:28:05;10.20;82.80
22645;DHT22;11489;50.834;6.752;2023-07-22T03:30:31;10.30;82.90
22645;DHT22;11489;50.834;6.752;2023-07-22T03:32:57;10.30;82.80
22645;DHT22;11489;50.834;6.752;2023-07-22T03:35:23;10.30;82.70
22645;DHT22;11489;50.834;6.752;2023-07-22T03:37:49;10.40;82.70
22645;DHT22;11489;50.834;6.752;2023-07-22T03:40:15;10.40;82.50
22645;DHT22;11489;50.834;6.752;2023-07-22T03:43:01;10.40;82.50
22645;DHT22;11489;50.834;6.752;2023-07-22T03:45:27;10.40;82.40
22645;DHT22;11489;50.834;6.752;2023-07-22T03:47:57;10.40;82.30
22645;DHT22;11489;50.834;6.752;2023-07-22T03:50:23;10.40;82.30
22645;DHT22;11489;50.834;6.752;2023-07-22T03:52:49;10.40;82.20
22645;DHT22;11489;50.834;6.752;2023-07-22T03:55:14;10.40;82.20
22645;DHT22;11489;50.834;6.752;2023-07-22T03:57:40;10.40;82.20
22645;DHT22;11489;50.834;6.752;2023-07-22T04:00:06;10.40;82.10
22645;DHT22;11489;50.834;6.752;2023-07-22T04:02:36;10.40;82.10
22645;DHT22;11489;50.834;6.752;2023-07-22T04:05:02;10.40;82.10
22645;DHT22;11489;50.834;6.752;2023-07-22T04:07:28;10.40;82.20
22645;DHT22;11489;50.834;6.752;2023-07-22T04:09:54;10.40;82.20
22645;DHT22;11489;50.834;6.752;2023-07-22T04:12:19;10.40;82.30
22645;DHT22;11489;50.834;6.752;2023-07-22T04:14:45;10.40;82.30
22645;DHT22;11489;50.834;6.752;2023-07-22T04:17:10;10.40;82.40
22645;DHT22;11489;50.834;6.752;2023-07-22T04:19:36;10.40;82.60
22645;DHT22;11489;50.834;6.752;2023-07-22T04:22:02;10.50;82.90
22645;DHT22;11489;50.834;6.752;2023-07-22T04:24:32;10.50;83.00
22645;DHT22;11489;50.834;6.752;2023-07-22T04:26:59;10.50;83.30
22645;DHT22;11489;50.834;6.752;2023-07-22T04:29:24;10.50;83.50
22645;DHT22;11489;50.834;6.752;2023-07-22T04:31:50;10.60;83.60
22645;DHT22;11489;50.834;6.752;2023-07-22T04:34:16;10.70;83.70
22645;DHT22;11489;50.834;6.752;2023-07-22T04:36:41;10.80;84.00
22645;DHT22;11489;50.834;6.752;2023-07-22T04:39:08;11.00;84.40
22645;DHT22;11489;50.834;6.752;2023-07-22T04:41:34;11.10;84.60
22645;DHT22;11489;50.834;6.752;2023-07-22T04:44:00;11.20;84.30
22645;DHT22;11489;50.834;6.752;2023-07-22T04:46:26;11.40;84.00
22645;DHT22;11489;50.834;6.752;2023-07-22T04:48:55;11.50;83.60
22645;DHT22;11489;50.834;6.752;2023-07-22T04:51:21;11.60;83.10
22645;DHT22;11489;50.834;6.752;2023-07-22T04:53:47;11.70;82.90
22645;DHT22;11489;50.834;6.752;2023-07-22T04:56:12;11.70;82.50
22645;DHT22;11489;50.834;6.752;2023-07-22T04:58:38;11.80;82.40
22645;DHT22;11489;50.834;6.752;2023-07-22T05:01:04;11.80;82.20
22645;DHT22;11489;50.834;6.752;2023-07-22T05:03:30;11.80;82.10
22645;DHT22;11489;50.834;6.752;2023-07-22T05:05:55;11.80;82.10
22645;DHT22;11489;50.834;6.752;2023-07-22T05:08:23;11.80;81.90
22645;DHT22;11489;50.834;6.752;2023-07-22T05:10:49;11.90;82.00
22645;DHT22;11489;50.834;6.752;2023-07-22T05:13:14;11.90;81.90
22645;DHT22;11489;50.834;6.752;2023-07-22T05:15:40;11.90;81.90
22645;DHT22;11489;50.834;6.752;2023-07-22T05:18:06;12.00;82.00
22645;DHT22;11489;50.834;6.752;2023-07-22T05:20:31;12.00;82.10
22645;DHT22;11489;50.834;6.752;2023-07-22T05:22:57;12.00;82.20
22645;DHT22;11489;50.834;6.752;2023-07-22T05:25:23;12.10;82.40
22645;DHT22;11489;50.834;6.752;2023-07-22T05:27:49;12.10;82.60
22645;DHT22;11489;50.834;6.752;2023-07-22T05:30:15;12.20;82.70
22645;DHT22;11489;50.834;6.752;2023-07-22T05:32:40;12.30;82.80
22645;DHT22;11489;50.834;6.752;2023-07-22T05:35:06;12.40;82.80
22645;DHT22;11489;50.834;6.752;2023-07-22T05:37:32;12.50;83.00
22645;DHT22;11489;50.834;6.752;2023-07-22T05:39:59;12.70;83.10
22645;DHT22;11489;50.834;6.752;2023-07-22T05:42:25;12.70;83.00
22645;DHT22;11489;50.834;6.752;2023-07-22T05:44:53;12.90;83.10
22645;DHT22;11489;50.834;6.752;2023-07-22T05:47:19;13.00;83.00
22645;DHT22;11489;50.834;6.752;2023-07-22T05:49:44;13.20;82.90
22645;DHT22;11489;50.834;6.752;2023-07-22T05:52:10;13.30;82.80
22645;DHT22;11489;50.834;6.752;2023-07-22T05:54:36;13.40;82.80
22645;DHT22;11489;50.834;6.752;2023-07-22T05:57:01;13.60;82.90
22645;DHT22;11489;50.834;6.752;2023-07-22T05:59:30;13.70;82.90
22645;DHT22;11489;50.834;6.752;2023-07-22T06:01:56;13.90;82.80
22645;DHT22;11489;50.834;6.752;2023-07-22T06:04:21;14.10;82.50
22645;DHT22;11489;50.834;6.752;2023-07-22T06:06:47;14.20;82.10
22645;DHT22;11489;50.834;6.752;2023-07-22T06:09:12;14.40;81.80
22645;DHT22;11489;50.834;6.752;2023-07-22T06:11:38;14.60;81.70
22645;DHT22;11489;50.834;6.752;2023-07-22T06:14:04;14.70;81.20
22645;DHT22;11489;50.834;6.752;2023-07-22T06:16:29;14.80;80.90
22645;DHT22;11489;50.834;6.752;2023-07-22T06:18:55;14.90;80.80
22645;DHT22;11489;50.834;6.752;2023-07-22T06:21:21;14.90;80.80
22645;DHT22;11489;50.834;6.752;2023-07-22T06:23:46;15.10;80.90
22645;DHT22;11489;50.834;6.752;2023-07-22T06:26:12;15.20;80.80
22645;DHT22;11489;50.834;6.752;2023-07-22T06:28:37;15.30;80.70
22645;DHT22;11489;50.834;6.752;2023-07-22T06:31:03;15.50;80.80
22645;DHT22;11489;50.834;6.752;2023-07-22T06:33:28;15.60;80.60
22645;DHT22;11489;50.834;6.752;2023-07-22T06:35:54;15.80;81.30
22645;DHT22;11489;50.834;6.752;2023-07-22T06:38:20;16.00;80.60
22645;DHT22;11489;50.834;6.752;2023-07-22T06:40:45;16.10;80.30
22645;DHT22;11489;50.834;6.752;2023-07-22T06:43:11;16.30;80.00
22645;DHT22;11489;50.834;6.752;2023-07-22T06:45:37;16.50;79.70
22645;DHT22;11489;50.834;6.752;2023-07-22T06:48:02;16.60;79.40
22645;DHT22;11489;50.834;6.752;2023-07-22T06:50:28;16.70;79.10
22645;DHT22;11489;50.834;6.752;2023-07-22T06:52:54;16.90;79.10
22645;DHT22;11489;50.834;6.752;2023-07-22T06:55:22;17.00;78.80
22645;DHT22;11489;50.834;6.752;2023-07-22T06:57:51;17.20;78.50
22645;DHT22;11489;50.834;6.752;2023-07-22T07:00:17;17.40;78.20
22645;DHT22;11489;50.834;6.752;2023-07-22T07:02:43;17.50;78.10
22645;DHT22;11489;50.834;6.752;2023-07-22T07:05:08;17.60;77.70
22645;DHT22;11489;50.834;6.752;2023-07-22T07:07:34;17.70;77.50
22645;DHT22;11489;50.834;6.752;2023-07-22T07:10:00;17.80;77.20
22645;DHT22;11489;50.834;6.752;2023-07-22T07:12:25;18.00;77.20
22645;DHT22;11489;50.834;6.752;2023-07-22T07:14:52;18.10;76.70
22645;DHT22;11489;50.834;6.752;2023-07-22T07:17:18;18.30;76.50
22645;DHT22;11489;50.834;6.752;2023-07-22T07:19:44;18.40;76.30
22645;DHT22;11489;50.834;6.752;2023-07-22T07:22:10;18.50;76.30
22645;DHT22;11489;50.834;6.752;2023-07-22T07:24:36;18.70;76.20
22645;DHT22;11489;50.834;6.752;2023-07-22T07:27:02;18.80;75.80
22645;DHT22;11489;50.834;6.752;2023-07-22T07:29:30;19.00;75.50
22645;DHT22;11489;50.834;6.752;2023-07-22T07:31:56;19.10;74.80
22645;DHT22;11489;50.834;6.752;2023-07-22T07:34:30;19.30;75.00
22645;DHT22;11489;50.834;6.752;2023-07-22T07:36:55;19.40;74.40
22645;DHT22;11489;50.834;6.752;2023-07-22T07:39:21;19.50;74.00
22645;DHT22;11489;50.834;6.752;2023-07-22T07:41:47;19.70;73.80
22645;DHT22;11489;50.834;6.752;2023-07-22T07:44:13;19.80;73.40
22645;DHT22;11489;50.834;6.752;2023-07-22T07:46:39;20.00;73.10
22645;DHT22;11489;50.834;6.752;2023-07-22T07:49:05;20.20;72.70
22645;DHT22;11489;50.834;6.752;2023-07-22T07:51:31;20.40;72.40
22645;DHT22;11489;50.834;6.752;2023-07-22T07:53:58;20.60;71.80
22645;DHT22;11489;50.834;6.752;2023-07-22T07:56:24;20.90;71.70
22645;DHT22;11489;50.834;6.752;2023-07-22T07:58:52;21.20;70.90
22645;DHT22;11489;50.834;6.752;2023-07-22T08:01:18;21.40;69.90
22645;DHT22;11489;50.834;6.752;2023-07-22T08:03:44;21.60;68.90
22645;DHT22;11489;50.834;6.752;2023-07-22T08:06:10;21.80;68.00
22645;DHT22;11489;50.834;6.752;2023-07-22T08:08:37;22.00;67.60
22645;DHT22;11489;50.834;6.752;2023-07-22T08:11:11;22.20;67.00
22645;DHT22;11489;50.834;6.752;2023-07-22T08:13:39;22.30;64.50
22645;DHT22;11489;50.834;6.752;2023-07-22T08:16:07;22.40;65.50
22645;DHT22;11489;50.834;6.752;2023-07-22T08:18:33;22.50;65.10
22645;DHT22;11489;50.834;6.752;2023-07-22T08:21:00;22.70;64.40
22645;DHT22;11489;50.834;6.752;2023-07-22T08:23:26;22.70;63.80
22645;DHT22;11489;50.834;6.752;2023-07-22T08:25:51;22.90;63.50
22645;DHT22;11489;50.834;6.752;2023-07-22T08:28:17;22.90;63.10
22645;DHT22;11489;50.834;6.752;2023-07-22T08:30:43;23.00;62.50
22645;DHT22;11489;50.834;6.752;2023-07-22T08:33:10;23.10;62.00
22645;DHT22;11489;50.834;6.752;2023-07-22T08:35:39;23.10;61.50
22645;DHT22;11489;50.834;6.752;2023-07-22T08:38:06;23.10;60.70
22645;DHT22;11489;50.834;6.752;2023-07-22T08:40:36;23.10;60.40
22645;DHT22;11489;50.834;6.752;2023-07-22T08:43:04;23.00;59.00
22645;DHT22;11489;50.834;6.752;2023-07-22T08:45:31;23.00;59.80
22645;DHT22;11489;50.834;6.752;2023-07-22T08:47:58;23.00;60.00
22645;DHT22;11489;50.834;6.752;2023-07-22T08:50:30;23.00;60.10
22645;DHT22;11489;50.834;6.752;2023-07-22T08:52:56;23.00;59.20
22645;DHT22;11489;50.834;6.752;2023-07-22T08:55:23;23.10;59.70
22645;DHT22;11489;50.834;6.752;2023-07-22T08:57:50;23.10;59.60
22645;DHT22;11489;50.834;6.752;2023-07-22T09:00:16;23.20;59.50
22645;DHT22;11489;50.834;6.752;2023-07-22T09:02:42;23.30;59.50
22645;DHT22;11489;50.834;6.752;2023-07-22T09:05:09;23.40;59.60
22645;DHT22;11489;50.834;6.752;2023-07-22T09:07:35;23.50;59.40
22645;DHT22;11489;50.834;6.752;2023-07-22T09:10:02;23.60;58.80
22645;DHT22;11489;50.834;6.752;2023-07-22T09:12:28;23.70;58.50
22645;DHT22;11489;50.834;6.752;2023-07-22T09:14:54;23.90;58.00
22645;DHT22;11489;50.834;6.752;2023-07-22T09:17:21;24.00;57.50
22645;DHT22;11489;50.834;6.752;2023-07-22T09:19:52;24.20;57.40
22645;DHT22;11489;50.834;6.752;2023-07-22T09:22:24;24.40;56.30
22645;DHT22;11489;50.834;6.752;2023-07-22T09:24:51;24.50;55.30
22645;DHT22;11489;50.834;6.752;2023-07-22T09:27:32;24.80;56.50
22645;DHT22;11489;50.834;6.752;2023-07-22T09:29:59;25.00;52.80
22645;DHT22;11489;50.834;6.752;2023-07-22T09:32:36;25.10;55.00
22645;DHT22;11489;50.834;6.752;2023-07-22T09:35:02;25.20;52.00
22645;DHT22;11489;50.834;6.752;2023-07-22T09:37:38;25.20;53.90
22645;DHT22;11489;50.834;6.752;2023-07-22T09:40:22;25.20;52.40
22645;DHT22;11489;50.834;6.752;2023-07-22T09:43:01;25.20;50.60
22645;DHT22;11489;50.834;6.752;2023-07-22T09:45:31;25.10;50.80
22645;DHT22;11489;50.834;6.752;2023-07-22T09:47:58;25.00;52.60
22645;DHT22;11489;50.834;6.752;2023-07-22T09:50:25;24.80;52.10
22645;DHT22;11489;50.834;6.752;2023-07-22T09:52:53;24.80;52.60
22645;DHT22;11489;50.834;6.752;2023-07-22T09:55:21;24.80;52.60
22645;DHT22;11489;50.834;6.752;2023-07-22T09:57:50;24.90;52.30
22645;DHT22;11489;50.834;6.752;2023-07-22T10:00:17;25.00;52.00
22645;DHT22;11489;50.834;6.752;2023-07-22T10:02:48;25.10;52.20
22645;DHT22;11489;50.834;6.752;2023-07-22T10:05:19;25.20;51.70
22645;DHT22;11489;50.834;6.752;2023-07-22T10:07:54;25.40;50.70
22645;DHT22;11489;50.834;6.752;2023-07-22T10:10:31;25.50;50.40
22645;DHT22;11489;50.834;6.752;2023-07-22T10:13:00;25.70;49.90
22645;DHT22;11489;50.834;6.752;2023-07-22T10:15:30;25.80;50.00
22645;DHT22;11489;50.834;6.752;2023-07-22T10:17:56;25.80;49.20
22645;DHT22;11489;50.834;6.752;2023-07-22T10:20:23;25.80;49.60
22645;DHT22;11489;50.834;6.752;2023-07-22T10:22:50;25.90;49.40
22645;DHT22;11489;50.834;6.752;2023-07-22T10:25:18;26.00;49.30
22645;DHT22;11489;50.834;6.752;2023-07-22T10:27:45;26.10;48.90
22645;DHT22;11489;50.834;6.752;2023-07-22T10:30:13;26.10;48.60
22645;DHT22;11489;50.834;6.752;2023-07-22T10:32:41;26.20;48.90
22645;DHT22;11489;50.834;6.752;2023-07-22T10:35:12;26.20;48.20
22645;DHT22;11489;50.834;6.752;2023-07-22T10:37:39;26.30;47.90
22645;DHT22;11489;50.834;6.752;2023-07-22T10:40:16;26.30;48.60
22645;DHT22;11489;50.834;6.752;2023-07-22T10:43:00;26.40;47.10
22645;DHT22;11489;50.834;6.752;2023-07-22T10:45:39;26.40;47.00
22645;DHT22;11489;50.834;6.752;2023-07-22T10:48:07;26.40;48.30
22645;DHT22;11489;50.834;6.752;2023-07-22T10:53:08;26.60;47.50
22645;DHT22;11489;50.834;6.752;2023-07-22T11:11:59;27.80;44.80
22645;DHT22;11489;50.834;6.752;2023-07-22T11:14:27;27.80;45.80
22645;DHT22;11489;50.834;6.752;2023-07-22T11:16:54;27.90;45.50
22645;DHT22;11489;50.834;6.752;2023-07-22T11:19:22;27.90;45.40
22645;DHT22;11489;50.834;6.752;2023-07-22T11:21:53;27.90;44.80
22645;DHT22;11489;50.834;6.752;2023-07-22T11:24:20;27.90;44.40
22645;DHT22;11489;50.834;6.752;2023-07-22T11:26:47;27.80;44.60
22645;DHT22;11489;50.834;6.752;2023-07-22T11:29:13;27.80;44.60
22645;DHT22;11489;50.834;6.752;2023-07-22T11:31:44;27.80;44.30
22645;DHT22;11489;50.834;6.752;2023-07-22T11:36:41;27.80;43.70
22645;DHT22;11489;50.834;6.752;2023-07-22T11:39:12;27.90;44.10
22645;DHT22;11489;50.834;6.752;2023-07-22T11:41:39;27.90;43.20
22645;DHT22;11489;50.834;6.752;2023-07-22T11:44:07;27.80;43.70
22645;DHT22;11489;50.834;6.752;2023-07-22T11:46:47;27.80;43.60
22645;DHT22;11489;50.834;6.752;2023-07-22T11:49:22;27.80;42.00
22645;DHT22;11489;50.834;6.752;2023-07-22T11:51:48;27.80;42.70
22645;DHT22;11489;50.834;6.752;2023-07-22T11:54:14;27.80;43.50
22645;DHT22;11489;50.834;6.752;2023-07-22T11:56:42;27.80;43.30
22645;DHT22;11489;50.834;6.752;2023-07-22T11:59:08;27.80;43.10
22645;DHT22;11489;50.834;6.752;2023-07-22T12:01:34;27.80;42.60
22645;DHT22;11489;50.834;6.752;2023-07-22T12:04:00;27.70;42.30
22645;DHT22;11489;50.834;6.752;2023-07-22T12:06:26;27.60;41.90
22645;DHT22;11489;50.834;6.752;2023-07-22T12:08:52;27.50;41.90
22645;DHT22;11489;50.834;6.752;2023-07-22T12:11:19;27.30;42.00
22645;DHT22;11489;50.834;6.752;2023-07-22T12:13:45;27.20;41.90
22645;DHT22;11489;50.834;6.752;2023-07-22T12:16:23;27.10;41.80
22645;DHT22;11489;50.834;6.752;2023-07-22T12:18:49;27.10;41.40
22645;DHT22;11489;50.834;6.752;2023-07-22T12:21:18;27.10;42.40
22645;DHT22;11489;50.834;6.752;2023-07-22T12:23:46;27.20;42.20
22645;DHT22;11489;50.834;6.752;2023-07-22T12:26:11;27.40;43.00
22645;DHT22;11489;50.834;6.752;2023-07-22T12:28:37;27.50;42.30
22645;DHT22;11489;50.834;6.752;2023-07-22T12:31:02;27.60;42.00
22645;DHT22;11489;50.834;6.752;2023-07-22T12:33:28;27.70;41.80
22645;DHT22;11489;50.834;6.752;2023-07-22T12:35:54;27.80;41.60
22645;DHT22;11489;50.834;6.752;2023-07-22T12:38:20;27.90;41.20
22645;DHT22;11489;50.834;6.752;2023-07-22T12:40:46;28.00;41.30
22645;DHT22;11489;50.834;6.752;2023-07-22T12:43:11;28.00;41.40
22645;DHT22;11489;50.834;6.752;2023-07-22T12:45:37;28.10;41.60
22645;DHT22;11489;50.834;6.752;2023-07-22T12:48:03;28.20;41.30
22645;DHT22;11489;50.834;6.752;2023-07-22T12:50:31;28.20;41.00
22645;DHT22;11489;50.834;6.752;2023-07-22T12:52:58;28.30;41.00
22645;DHT22;11489;50.834;6.752;2023-07-22T12:55:26;28.30;41.20
22645;DHT22;11489;50.834;6.752;2023-07-22T12:57:53;28.40;41.10
22645;DHT22;11489;50.834;6.752;2023-07-22T13:00:18;28.50;40.90
22645;DHT22;11489;50.834;6.752;2023-07-22T13:02:44;28.50;40.90
22645;DHT22;11489;50.834;6.752;2023-07-22T13:05:10;28.60;40.70
22645;DHT22;11489;50.834;6.752;2023-07-22T13:07:36;28.60;40.70
22645;DHT22;11489;50.834;6.752;2023-07-22T13:10:05;28.60;40.40
22645;DHT22;11489;50.834;6.752;2023-07-22T13:12:38;28.70;40.60
22645;DHT22;11489;50.834;6.752;2023-07-22T13:15:07;28.70;40.20
22645;DHT22;11489;50.834;6.752;2023-07-22T13:17:33;28.80;40.20
22645;DHT22;11489;50.834;6.752;2023-07-22T13:19:59;28.80;40.00
22645;DHT22;11489;50.834;6.752;2023-07-22T13:22:24;28.80;40.00
22645;DHT22;11489;50.834;6.752;2023-07-22T13:24:50;28.70;39.80
22645;DHT22;11489;50.834;6.752;2023-07-22T13:27:15;28.70;39.40
22645;DHT22;11489;50.834;6.752;2023-07-22T13:29:41;28.60;39.30
22645;DHT22;11489;50.834;6.752;2023-07-22T13:32:07;28.50;39.30
22645;DHT22;11489;50.834;6.752;2023-07-22T13:34:33;28.40;39.20
22645;DHT22;11489;50.834;6.752;2023-07-22T13:36:58;28.30;39.30
22645;DHT22;11489;50.834;6.752;2023-07-22T13:39:24;28.30;39.10
22645;DHT22;11489;50.834;6.752;2023-07-22T13:41:50;28.30;39.20
22645;DHT22;11489;50.834;6.752;2023-07-22T13:44:16;28.30;39.20
22645;DHT22;11489;50.834;6.752;2023-07-22T13:46:42;28.30;39.10
22645;DHT22;11489;50.834;6.752;2023-07-22T13:49:08;28.20;39.10
22645;DHT22;11489;50.834;6.752;2023-07-22T13:51:33;28.30;39.20
22645;DHT22;11489;50.834;6.752;2023-07-22T13:53:59;28.30;39.30
22645;DHT22;11489;50.834;6.752;2023-07-22T13:56:33;28.40;39.30
22645;DHT22;11489;50.834;6.752;2023-07-22T13:59:00;28.40;39.00
22645;DHT22;11489;50.834;6.752;2023-07-22T14:01:26;28.50;39.30
22645;DHT22;11489;50.834;6.752;2023-07-22T14:03:53;28.60;39.40
22645;DHT22;11489;50.834;6.752;2023-07-22T14:06:19;28.70;39.20
22645;DHT22;11489;50.834;6.752;2023-07-22T14:08:44;28.80;39.00
22645;DHT22;11489;50.834;6.752;2023-07-22T14:11:10;28.80;38.80
22645;DHT22;11489;50.834;6.752;2023-07-22T14:13:36;28.90;38.80
22645;DHT22;11489;50.834;6.752;2023-07-22T14:16:02;28.90;38.90
22645;DHT22;11489;50.834;6.752;2023-07-22T14:18:29;29.00;39.10
22645;DHT22;11489;50.834;6.752;2023-07-22T14:20:54;29.10;39.30
22645;DHT22;11489;50.834;6.752;2023-07-22T14:23:20;29.20;39.00
22645;DHT22;11489;50.834;6.752;2023-07-22T14:25:46;29.30;38.90
22645;DHT22;11489;50.834;6.752;2023-07-22T14:28:11;29.50;38.90
22645;DHT22;11489;50.834;6.752;2023-07-22T14:30:37;29.60;38.30
22645;DHT22;11489;50.834;6.752;2023-07-22T14:33:03;29.60;38.00
22645;DHT22;11489;50.834;6.752;2023-07-22T14:35:28;29.80;38.00
22645;DHT22;11489;50.834;6.752;2023-07-22T14:37:54;29.80;38.00
22645;DHT22;11489;50.834;6.752;2023-07-22T14:40:21;29.90;38.00
22645;DHT22;11489;50.834;6.752;2023-07-22T14:42:47;29.90;37.80
22645;DHT22;11489;50.834;6.752;2023-07-22T14:45:12;30.00;37.90
22645;DHT22;11489;50.834;6.752;2023-07-22T14:47:38;30.10;37.80
22645;DHT22;11489;50.834;6.752;2023-07-22T14:50:05;30.10;37.40
22645;DHT22;11489;50.834;6.752;2023-07-22T14:52:31;30.00;37.10
22645;DHT22;11489;50.834;6.752;2023-07-22T14:54:57;29.90;37.10
22645;DHT22;11489;50.834;6.752;2023-07-22T14:57:22;29.90;37.40
22645;DHT22;11489;50.834;6.752;2023-07-22T14:59:52;30.00;37.30
22645;DHT22;11489;50.834;6.752;2023-07-22T15:02:17;30.00;37.20
22645;DHT22;11489;50.834;6.752;2023-07-22T15:04:43;30.00;37.10
22645;DHT22;11489;50.834;6.752;2023-07-22T15:07:09;29.90;36.90
22645;DHT22;11489;50.834;6.752;2023-07-22T15:09:34;29.80;36.70
22645;DHT22;11489;50.834;6.752;2023-07-22T15:12:00;29.60;36.50
22645;DHT22;11489;50.834;6.752;2023-07-22T15:14:26;29.50;36.80
22645;DHT22;11489;50.834;6.752;2023-07-22T15:16:52;29.40;36.90
22645;DHT22;11489;50.834;6.752;2023-07-22T15:19:18;29.30;37.00
22645;DHT22;11489;50.834;6.752;2023-07-22T15:21:43;29.20;36.80
22645;DHT22;11489;50.834;6.752;2023-07-22T15:24:09;29.10;36.80
22645;DHT22;11489;50.834;6.752;2023-07-22T15:26:38;29.00;36.80
22645;DHT22;11489;50.834;6.752;2023-07-22T15:29:04;28.90;36.70
22645;DHT22;11489;50.834;6.752;2023-07-22T15:31:30;28.70;37.10
22645;DHT22;11489;50.834;6.752;2023-07-22T15:33:55;28.70;37.50
22645;DHT22;11489;50.834;6.752;2023-07-22T15:36:21;28.60;37.40
22645;DHT22;11489;50.834;6.752;2023-07-22T15:38:47;28.60;37.50
22645;DHT22;11489;50.834;6.752;2023-07-22T15:41:12;28.50;37.60
22645;DHT22;11489;50.834;6.752;2023-07-22T15:43:41;28.40;37.60
22645;DHT22;11489;50.834;6.752;2023-07-22T15:46:07;28.40;37.70
22645;DHT22;11489;50.834;6.752;2023-07-22T15:48:33;28.30;37.70